createdAt,value
2019-03-22T00:00:49.509Z,12.57
2019-03-22T00:03:19.373Z,13.10
2019-03-22T00:05:49.208Z,13.57
2019-03-22T00:08:19.050Z,12.10
2019-03-22T00:10:48.914Z,11.97
2019-03-22T00:13:18.769Z,12.53
2019-03-22T00:15:48.637Z,12.23
2019-03-22T00:18:18.532Z,12.20
2019-03-22T00:20:48.764Z,10.30
2019-03-22T00:23:18.630Z,12.00
2019-03-22T00:25:48.492Z,12.00
2019-03-22T00:28:18.361Z,10.50
2019-03-22T00:30:48.172Z,12.63
2019-03-22T00:33:17.985Z,11.10
2019-03-22T00:35:47.809Z,10.73
2019-03-22T00:38:17.690Z,11.47
2019-03-22T00:40:47.528Z,10.67
2019-03-22T00:43:17.336Z,9.77
2019-03-22T00:45:47.163Z,10.67
2019-03-22T00:48:16.971Z,9.80
2019-03-22T00:50:46.901Z,10.53
2019-03-22T00:53:16.701Z,8.70
2019-03-22T00:55:46.544Z,11.57
2019-03-22T00:58:16.452Z,10.97
2019-03-22T01:00:46.355Z,15.00
2019-03-22T01:03:16.169Z,11.03
2019-03-22T01:05:46.002Z,12.30
2019-03-22T01:08:15.801Z,10.70
2019-03-22T01:10:45.628Z,11.10
2019-03-22T01:13:15.420Z,9.80
2019-03-22T01:15:45.253Z,9.03
2019-03-22T01:18:15.054Z,10.10
2019-03-22T01:20:44.912Z,9.60
2019-03-22T01:23:14.797Z,10.30
2019-03-22T01:25:44.634Z,9.20
2019-03-22T01:28:14.430Z,10.27
2019-03-22T01:30:44.247Z,9.90
2019-03-22T01:33:14.050Z,10.40
2019-03-22T01:35:43.880Z,10.60
2019-03-22T01:38:13.691Z,10.10
2019-03-22T01:40:43.584Z,10.90
2019-03-22T01:43:13.401Z,11.10
2019-03-22T01:45:43.232Z,10.70
2019-03-22T01:48:13.172Z,10.70
2019-03-22T01:50:42.995Z,9.67
2019-03-22T01:53:12.831Z,11.50
2019-03-22T01:55:42.675Z,13.33
2019-03-22T01:58:12.559Z,11.10
2019-03-22T02:00:42.389Z,10.83
2019-03-22T02:03:12.191Z,9.87
2019-03-22T02:05:42.025Z,12.07
2019-03-22T02:08:11.842Z,9.80
2019-03-22T02:10:41.676Z,11.03
2019-03-22T02:13:11.513Z,10.03
2019-03-22T02:15:41.472Z,10.80
2019-03-22T02:18:11.282Z,10.50
2019-03-22T02:20:41.191Z,10.37
2019-03-22T02:23:11.032Z,9.73
2019-03-22T02:25:40.857Z,10.80
2019-03-22T02:28:10.671Z,10.30
2019-03-22T02:30:40.538Z,11.63
2019-03-22T02:33:10.397Z,10.73
2019-03-22T02:35:40.217Z,9.17
2019-03-22T02:38:10.111Z,9.90
2019-03-22T02:40:40.148Z,9.90
2019-03-22T02:43:10.069Z,9.73
2019-03-22T02:45:39.896Z,10.20
2019-03-22T02:48:09.715Z,10.00
2019-03-22T02:50:39.519Z,10.17
2019-03-22T02:53:09.358Z,10.10
2019-03-22T02:55:39.171Z,10.30
2019-03-22T02:58:20.365Z,10.33
2019-03-22T03:00:40.602Z,10.60
2019-03-22T03:03:10.530Z,10.67
2019-03-22T03:05:40.364Z,10.33
2019-03-22T03:08:10.385Z,10.97
2019-03-22T03:10:40.222Z,11.27
2019-03-22T03:13:10.063Z,10.10
2019-03-22T03:15:39.857Z,9.27
2019-03-22T03:18:09.705Z,10.93
2019-03-22T03:20:39.587Z,10.37
2019-03-22T03:23:09.514Z,10.57
2019-03-22T03:25:39.333Z,9.80
2019-03-22T03:28:09.160Z,9.03
2019-03-22T03:30:39.042Z,9.50
2019-03-22T03:33:09.089Z,11.00
2019-03-22T03:35:39.017Z,9.87
2019-03-22T03:38:08.923Z,9.67
2019-03-22T03:40:38.832Z,9.73
2019-03-22T03:43:08.650Z,9.57
2019-03-22T03:45:38.570Z,9.53
2019-03-22T03:48:09.138Z,9.03
2019-03-22T03:50:39.619Z,8.90
2019-03-22T03:53:09.533Z,9.70
2019-03-22T03:55:39.365Z,8.97
2019-03-22T03:58:09.345Z,10.40
2019-03-22T04:00:39.142Z,10.53
2019-03-22T04:03:08.967Z,10.40
2019-03-22T04:05:38.782Z,9.90
2019-03-22T04:08:08.702Z,9.87
2019-03-22T04:10:38.581Z,9.13
2019-03-22T04:13:08.518Z,9.40
2019-03-22T04:15:38.336Z,9.40
2019-03-22T04:18:08.221Z,8.80
2019-03-22T04:20:38.090Z,8.40
2019-03-22T04:23:07.991Z,8.13
2019-03-22T04:25:37.787Z,8.63
2019-03-22T04:28:07.624Z,9.40
2019-03-22T04:30:37.444Z,8.33
2019-03-22T04:33:07.394Z,9.03
2019-03-22T04:35:37.240Z,8.30
2019-03-22T04:38:07.065Z,9.97
2019-03-22T04:40:36.883Z,8.33
2019-03-22T04:43:06.696Z,7.93
2019-03-22T04:45:37.525Z,8.17
2019-03-22T04:48:16.214Z,9.27
2019-03-22T04:50:48.288Z,9.47
2019-03-22T04:53:21.994Z,8.40
2019-03-22T04:55:56.393Z,9.17
2019-03-22T04:58:28.126Z,7.93
2019-03-22T05:00:59.673Z,8.80
2019-03-22T05:03:33.023Z,9.00
2019-03-22T05:06:05.795Z,9.47
2019-03-22T05:08:38.969Z,8.70
2019-03-22T05:11:11.261Z,8.53
2019-03-22T05:13:42.877Z,8.30
2019-03-22T05:16:15.534Z,9.60
2019-03-22T05:18:49.274Z,9.00
2019-03-22T05:21:21.873Z,9.67
2019-03-22T05:23:54.635Z,8.23
2019-03-22T05:26:26.162Z,9.17
2019-03-22T05:28:56.300Z,7.77
2019-03-22T05:31:59.660Z,8.63
2019-03-22T05:34:29.577Z,9.30
2019-03-22T05:36:59.503Z,8.90
2019-03-22T05:39:29.334Z,9.27
2019-03-22T05:41:59.147Z,8.73
2019-03-22T05:44:28.969Z,8.20
2019-03-22T05:46:58.883Z,10.30
2019-03-22T05:49:28.778Z,9.43
2019-03-22T05:51:58.704Z,8.73
2019-03-22T05:54:29.423Z,9.13
2019-03-22T05:56:59.356Z,8.97
2019-03-22T05:59:29.335Z,10.00
2019-03-22T06:02:00.488Z,9.23
2019-03-22T06:04:30.379Z,9.90
2019-03-22T06:07:00.212Z,8.50
2019-03-22T06:09:30.037Z,7.50
2019-03-22T06:11:59.857Z,8.93
2019-03-22T06:14:29.697Z,9.67
2019-03-22T06:16:59.525Z,9.43
2019-03-22T06:19:29.400Z,9.40
2019-03-22T06:22:01.132Z,9.37
2019-03-22T06:24:30.982Z,8.83
2019-03-22T06:27:00.806Z,8.70
2019-03-22T06:29:30.629Z,9.00
2019-03-22T06:32:00.430Z,7.37
2019-03-22T06:34:30.277Z,8.40
2019-03-22T06:37:00.130Z,8.70
2019-03-22T06:39:29.957Z,7.73
2019-03-22T06:41:59.783Z,8.57
2019-03-22T06:44:29.604Z,7.63
2019-03-22T06:46:59.428Z,8.67
2019-03-22T06:49:29.262Z,7.60
2019-03-22T06:51:59.056Z,9.17
2019-03-22T06:54:31.847Z,8.23
2019-03-22T06:57:00.503Z,8.57
2019-03-22T06:59:30.338Z,9.57
2019-03-22T07:02:00.605Z,7.30
2019-03-22T07:04:30.485Z,7.67
2019-03-22T07:07:00.382Z,9.67
2019-03-22T07:09:30.230Z,7.80
2019-03-22T07:12:00.067Z,8.00
2019-03-22T07:14:29.993Z,7.50
2019-03-22T07:16:59.878Z,7.30
2019-03-22T07:19:29.809Z,8.03
2019-03-22T07:21:59.895Z,8.40
2019-03-22T07:24:29.901Z,8.13
2019-03-22T07:26:59.921Z,8.87
2019-03-22T07:29:29.769Z,8.50
2019-03-22T07:31:59.618Z,8.50
2019-03-22T07:34:29.455Z,8.80
2019-03-22T07:36:59.280Z,8.30
2019-03-22T07:39:29.143Z,8.30
2019-03-22T07:41:58.973Z,10.03
2019-03-22T07:44:28.835Z,8.40
2019-03-22T07:46:58.653Z,9.13
2019-03-22T07:49:28.477Z,9.90
2019-03-22T07:51:58.325Z,8.90
2019-03-22T07:54:28.235Z,8.40
2019-03-22T07:56:58.143Z,9.50
2019-03-22T07:59:28.010Z,9.43
2019-03-22T08:01:57.835Z,8.20
2019-03-22T08:04:28.149Z,7.40
2019-03-22T08:06:58.091Z,9.70
2019-03-22T08:09:28.005Z,8.57
2019-03-22T08:11:57.889Z,9.47
2019-03-22T08:14:27.736Z,8.77
2019-03-22T08:16:57.716Z,8.03
2019-03-22T08:19:27.592Z,8.80
2019-03-22T08:21:57.405Z,8.60
2019-03-22T08:24:27.236Z,8.77
2019-03-22T08:26:57.101Z,7.77
2019-03-22T08:29:26.953Z,7.77
2019-03-22T08:31:56.967Z,7.23
2019-03-22T08:34:26.910Z,8.50
2019-03-22T08:36:56.732Z,8.20
2019-03-22T08:39:26.609Z,9.23
2019-03-22T08:41:56.446Z,8.40
2019-03-22T08:44:26.281Z,7.47
2019-03-22T08:46:56.140Z,8.30
2019-03-22T08:49:26.023Z,8.80
2019-03-22T08:51:55.992Z,8.60
2019-03-22T08:54:25.849Z,8.37
2019-03-22T08:56:55.828Z,8.40
2019-03-22T08:59:25.756Z,7.53
2019-03-22T09:01:56.065Z,8.63
2019-03-22T09:04:25.904Z,8.20
2019-03-22T09:06:56.111Z,8.10
2019-03-22T09:09:27.477Z,6.90
2019-03-22T09:11:57.532Z,8.70
2019-03-22T09:14:27.521Z,7.17
2019-03-22T09:16:57.509Z,8.20
2019-03-22T09:19:27.442Z,8.03
2019-03-22T09:21:59.537Z,7.40
2019-03-22T09:24:38.601Z,8.47
2019-03-22T09:27:00.429Z,8.40
2019-03-22T09:29:30.312Z,8.57
2019-03-22T09:32:00.223Z,9.43
2019-03-22T09:34:33.904Z,9.77
2019-03-22T09:37:01.695Z,9.93
2019-03-22T09:39:31.583Z,9.07
2019-03-22T09:42:01.398Z,9.60
2019-03-22T09:44:42.884Z,8.73
2019-03-22T09:47:02.942Z,9.73
2019-03-22T09:49:32.878Z,9.20
2019-03-22T09:52:02.777Z,10.60
2019-03-22T09:54:32.711Z,9.67
2019-03-22T09:57:02.581Z,11.00
2019-03-22T09:59:32.428Z,9.97
2019-03-22T10:02:02.257Z,9.80
2019-03-22T10:04:32.189Z,11.20
2019-03-22T10:07:02.081Z,10.73
2019-03-22T10:09:31.995Z,11.37
2019-03-22T10:12:01.903Z,9.90
2019-03-22T10:14:31.848Z,10.60
2019-03-22T10:17:01.811Z,10.10
2019-03-22T10:19:31.697Z,10.60
2019-03-22T10:22:01.563Z,9.80
2019-03-22T10:24:31.498Z,10.50
2019-03-22T10:27:01.371Z,9.27
2019-03-22T10:29:31.294Z,10.27
2019-03-22T10:32:01.198Z,10.23
2019-03-22T10:34:31.197Z,10.47
2019-03-22T10:37:01.038Z,9.73
2019-03-22T10:39:31.066Z,8.80
2019-03-22T10:42:01.148Z,8.80
2019-03-22T10:44:31.078Z,9.93
2019-03-22T10:47:00.958Z,8.60
2019-03-22T10:49:30.806Z,9.30
2019-03-22T10:52:00.667Z,9.80
2019-03-22T10:54:30.548Z,8.73
2019-03-22T10:57:00.558Z,9.53
2019-03-22T10:59:30.395Z,9.70
2019-03-22T11:02:03.604Z,9.63
2019-03-22T11:04:31.758Z,10.77
2019-03-22T11:07:01.589Z,10.00
2019-03-22T11:09:31.441Z,10.20
2019-03-22T11:12:01.251Z,10.60
2019-03-22T11:14:32.165Z,10.47
2019-03-22T11:17:02.076Z,10.93
2019-03-22T11:19:31.921Z,9.63
2019-03-22T11:22:01.755Z,10.77
2019-03-22T11:24:31.594Z,10.80
2019-03-22T11:34:11.929Z,9.90
2019-03-22T11:36:41.775Z,10.43
2019-03-22T11:39:15.749Z,8.77
2019-03-22T11:41:44.279Z,9.97
2019-03-22T11:44:14.204Z,8.30
2019-03-22T11:46:44.041Z,7.70
2019-03-22T11:49:13.863Z,7.80
2019-03-22T11:51:43.675Z,8.23
2019-03-22T11:54:13.509Z,8.80
2019-03-22T11:56:43.334Z,7.60
2019-03-22T11:59:13.134Z,10.30
2019-03-22T12:01:42.988Z,6.60
2019-03-22T12:04:12.801Z,8.10
2019-03-22T12:06:42.640Z,7.67
2019-03-22T12:09:12.478Z,8.90
2019-03-22T12:11:42.317Z,6.83
2019-03-22T12:14:12.213Z,7.53
2019-03-22T12:16:42.040Z,8.50
2019-03-22T12:19:11.850Z,7.47
2019-03-22T12:21:41.689Z,8.67
2019-03-22T12:24:11.501Z,7.90
2019-03-22T12:26:41.348Z,8.57
2019-03-22T12:29:11.199Z,7.83
2019-03-22T12:31:41.020Z,7.37
2019-03-22T12:34:10.832Z,7.93
2019-03-22T12:36:40.722Z,7.40
2019-03-22T12:39:10.912Z,7.03
2019-03-22T12:41:40.757Z,8.47
2019-03-22T12:44:10.599Z,6.70
2019-03-22T12:46:40.514Z,6.47
2019-03-22T12:49:10.375Z,6.77
2019-03-22T12:51:40.202Z,6.30
2019-03-22T12:54:10.156Z,6.23
2019-03-22T12:56:39.994Z,7.07
2019-03-22T12:59:09.789Z,6.90
2019-03-22T13:01:39.639Z,8.37
2019-03-22T13:04:09.507Z,6.37
2019-03-22T13:06:39.340Z,7.77
2019-03-22T13:09:09.896Z,6.37
2019-03-22T13:11:39.730Z,9.30
2019-03-22T13:14:09.537Z,6.60
2019-03-22T13:16:39.361Z,6.57
2019-03-22T13:19:09.197Z,6.03
2019-03-22T13:21:39.142Z,5.70
2019-03-22T13:24:09.001Z,6.60
2019-03-22T13:26:38.838Z,5.00
2019-03-22T13:29:08.657Z,6.10
2019-03-22T13:31:38.486Z,6.70
2019-03-22T13:34:08.302Z,5.90
2019-03-22T13:36:38.129Z,5.40
2019-03-22T13:39:09.051Z,5.70
2019-03-22T13:41:38.977Z,10.20
2019-03-22T13:44:08.789Z,6.27
2019-03-22T13:46:40.495Z,7.10
2019-03-22T13:49:10.152Z,7.57
2019-03-22T13:51:39.996Z,5.83
2019-03-22T13:54:09.806Z,7.03
2019-03-22T13:56:39.717Z,6.27
2019-03-22T13:59:09.592Z,6.43
2019-03-22T14:01:39.417Z,7.30
2019-03-22T14:04:09.237Z,7.40
2019-03-22T14:06:39.143Z,6.43
2019-03-22T14:09:09.518Z,6.20
2019-03-22T14:11:39.324Z,9.53
2019-03-22T14:14:09.141Z,8.70
2019-03-22T14:16:39.004Z,6.83
2019-03-22T14:19:08.843Z,7.00
2019-03-22T14:21:38.672Z,6.70
2019-03-22T14:24:08.489Z,5.40
2019-03-22T14:26:38.462Z,6.40
2019-03-22T14:29:08.261Z,6.27
2019-03-22T14:31:38.171Z,6.40
2019-03-22T14:34:07.975Z,6.37
2019-03-22T14:36:37.824Z,4.93
2019-03-22T14:39:09.120Z,5.93
2019-03-22T14:41:38.964Z,5.87
2019-03-22T14:44:08.765Z,5.20
2019-03-22T14:46:38.606Z,5.10
2019-03-22T14:49:08.455Z,6.50
2019-03-22T14:51:38.299Z,5.80
2019-03-22T14:54:08.108Z,4.90
2019-03-22T14:56:37.944Z,5.67
2019-03-22T14:59:07.818Z,5.97
2019-03-22T15:01:37.670Z,6.13
2019-03-22T15:04:07.496Z,6.20
2019-03-22T15:06:37.312Z,6.10
2019-03-22T15:09:08.319Z,6.60
2019-03-22T15:11:38.167Z,6.10
2019-03-22T15:14:15.982Z,6.43
2019-03-22T15:17:03.881Z,6.27
2019-03-22T15:19:58.713Z,10.17
2019-03-22T15:22:55.274Z,6.20
2019-03-22T15:25:42.865Z,6.07
2019-03-22T15:28:30.517Z,5.40
2019-03-22T15:31:22.451Z,6.37
2019-03-22T15:34:15.103Z,5.87
2019-03-22T15:37:03.938Z,4.83
2019-03-22T15:39:58.811Z,5.77
2019-03-22T15:42:28.620Z,5.10
2019-03-22T15:44:58.506Z,5.57
2019-03-22T15:47:28.373Z,5.90
2019-03-22T15:49:58.216Z,5.60
2019-03-22T15:52:28.104Z,5.20
2019-03-22T15:54:57.923Z,5.70
2019-03-22T15:57:27.767Z,5.37
2019-03-22T15:59:57.606Z,5.47
2019-03-22T16:02:27.414Z,6.00
2019-03-22T16:04:57.236Z,4.33
2019-03-22T16:07:27.097Z,6.50
2019-03-22T16:09:57.102Z,6.63
2019-03-22T16:12:26.933Z,5.50
2019-03-22T16:14:56.761Z,5.07
2019-03-22T16:17:26.604Z,4.33
2019-03-22T16:19:56.462Z,5.30
2019-03-22T16:22:26.336Z,5.20
2019-03-22T16:24:56.219Z,4.73
2019-03-22T16:27:26.070Z,4.70
2019-03-22T16:29:55.909Z,5.60
2019-03-22T16:32:25.711Z,4.43
2019-03-22T16:34:55.561Z,4.70
2019-03-22T16:37:25.377Z,3.67
2019-03-22T16:39:55.191Z,4.20
2019-03-22T16:42:25.037Z,4.30
2019-03-22T16:44:54.853Z,3.50
2019-03-22T16:47:24.769Z,4.97
2019-03-22T16:49:54.588Z,4.83
2019-03-22T16:52:24.428Z,3.83
2019-03-22T16:54:54.266Z,4.20
2019-03-22T16:57:24.058Z,3.57
2019-03-22T16:59:53.880Z,3.17
2019-03-22T17:02:23.765Z,3.57
2019-03-22T17:04:53.656Z,3.47
2019-03-22T17:07:23.471Z,4.23
2019-03-22T17:09:53.317Z,5.50
2019-03-22T17:12:23.179Z,5.30
2019-03-22T17:14:53.005Z,4.20
2019-03-22T17:17:22.836Z,6.27
2019-03-22T17:19:52.686Z,4.07
2019-03-22T17:22:22.529Z,5.00
2019-03-22T17:24:52.432Z,4.73
2019-03-22T17:27:22.270Z,4.63
2019-03-22T17:29:52.109Z,4.87
2019-03-22T17:32:22.027Z,5.23
2019-03-22T17:34:51.942Z,5.90
2019-03-22T17:37:21.758Z,4.80
2019-03-22T17:39:51.656Z,5.37
2019-03-22T17:42:21.453Z,4.50
2019-03-22T17:44:51.294Z,5.03
2019-03-22T17:47:21.156Z,4.30
2019-03-22T17:49:50.990Z,4.90
2019-03-22T17:52:20.875Z,5.80
2019-03-22T17:54:50.679Z,4.70
2019-03-22T17:57:20.510Z,5.33
2019-03-22T17:59:50.312Z,5.97
2019-03-22T18:02:20.181Z,5.83
2019-03-22T18:04:50.037Z,6.10
2019-03-22T18:07:19.861Z,6.40
2019-03-22T18:09:49.677Z,7.57
2019-03-22T18:12:19.490Z,9.00
2019-03-22T18:14:49.314Z,8.13
2019-03-22T18:17:19.156Z,7.90
2019-03-22T18:19:48.986Z,8.13
2019-03-22T18:22:18.854Z,9.10
2019-03-22T18:24:48.678Z,7.27
2019-03-22T18:27:18.599Z,8.97
2019-03-22T18:29:48.713Z,7.30
2019-03-22T18:32:18.538Z,6.23
2019-03-22T18:34:48.358Z,6.93
2019-03-22T18:37:18.180Z,7.60
2019-03-22T18:39:47.989Z,5.97
2019-03-22T18:42:17.797Z,7.40
2019-03-22T18:44:47.672Z,6.97
2019-03-22T18:47:17.525Z,6.30
2019-03-22T18:49:47.339Z,6.27
2019-03-22T18:52:17.162Z,6.23
2019-03-22T18:54:46.976Z,7.07
2019-03-22T18:57:16.801Z,5.33
2019-03-22T18:59:46.614Z,5.80
2019-03-22T19:02:16.423Z,6.50
2019-03-22T19:04:46.223Z,6.80
2019-03-22T19:07:16.037Z,7.60
2019-03-22T19:09:45.875Z,7.50
2019-03-22T19:12:15.719Z,9.20
2019-03-22T19:14:45.563Z,8.07
2019-03-22T19:17:15.419Z,12.17
2019-03-22T19:19:45.371Z,8.20
2019-03-22T19:22:15.533Z,7.20
2019-03-22T19:24:45.536Z,7.00
2019-03-22T19:27:15.728Z,6.23
2019-03-22T19:29:45.741Z,6.53
2019-03-22T19:32:16.564Z,7.47
2019-03-22T19:34:53.993Z,6.73
2019-03-22T19:37:18.479Z,6.60
2019-03-22T19:39:48.393Z,8.17
2019-03-22T19:42:18.519Z,6.50
2019-03-22T19:44:48.637Z,6.50
2019-03-22T19:47:18.614Z,6.73
2019-03-22T19:49:48.467Z,5.97
2019-03-22T19:52:19.825Z,6.67
2019-03-22T19:54:49.908Z,6.97
2019-03-22T19:57:19.848Z,7.50
2019-03-22T19:59:49.789Z,6.00
2019-03-22T20:02:20.111Z,7.27
2019-03-22T20:04:49.961Z,9.30
2019-03-22T20:07:26.808Z,7.13
2019-03-22T20:09:51.385Z,9.30
2019-03-22T20:12:21.302Z,10.47
2019-03-22T20:14:51.363Z,12.50
2019-03-22T20:17:21.379Z,9.20
2019-03-22T20:19:51.410Z,17.63
2019-03-22T20:22:21.220Z,10.23
2019-03-22T20:24:51.244Z,11.27
2019-03-22T20:27:21.167Z,11.37
2019-03-22T20:29:51.244Z,12.83
2019-03-22T20:32:21.141Z,16.67
2019-03-22T20:34:51.053Z,12.87
2019-03-22T20:37:21.241Z,15.83
2019-03-22T20:39:51.188Z,14.87
2019-03-22T20:42:21.225Z,12.57
2019-03-22T20:44:51.252Z,16.27
2019-03-22T20:47:21.565Z,12.00
2019-03-22T20:49:51.392Z,11.67
2019-03-22T20:52:21.492Z,10.90
2019-03-22T20:54:51.393Z,11.27
2019-03-22T20:57:21.248Z,11.13
2019-03-22T20:59:51.373Z,9.60
2019-03-22T21:02:21.294Z,8.60
2019-03-22T21:04:51.270Z,9.17
2019-03-22T21:07:21.434Z,8.37
2019-03-22T21:09:51.481Z,9.70
2019-03-22T21:12:21.398Z,9.77
2019-03-22T21:14:51.325Z,9.40
2019-03-22T21:17:21.203Z,8.60
2019-03-22T21:19:51.030Z,8.70
2019-03-22T21:22:20.860Z,15.57
2019-03-22T21:24:50.716Z,10.07
2019-03-22T21:27:20.527Z,12.30
2019-03-22T21:29:50.431Z,8.77
2019-03-22T21:32:20.265Z,9.57
2019-03-22T21:34:50.124Z,8.97
2019-03-22T21:37:19.946Z,8.80
2019-03-22T21:39:49.787Z,7.40
2019-03-22T21:42:19.744Z,9.77
2019-03-22T21:44:49.558Z,8.50
2019-03-22T21:47:19.465Z,7.43
2019-03-22T21:49:49.324Z,8.30
2019-03-22T21:52:19.197Z,8.10
2019-03-22T21:54:49.007Z,7.00
2019-03-22T21:57:18.874Z,7.50
2019-03-22T21:59:48.800Z,7.80
2019-03-22T22:02:18.773Z,7.43
2019-03-22T22:04:48.601Z,10.60
2019-03-22T22:07:18.467Z,8.40
2019-03-22T22:09:48.333Z,8.80
2019-03-22T22:12:18.283Z,9.10
2019-03-22T22:14:48.166Z,8.00
2019-03-22T22:17:18.072Z,8.57
2019-03-22T22:19:47.897Z,15.23
2019-03-22T22:22:18.124Z,8.67
2019-03-22T22:24:48.039Z,8.40
2019-03-22T22:27:17.901Z,7.37
2019-03-22T22:29:47.801Z,8.60
2019-03-22T22:32:17.707Z,8.40
2019-03-22T22:34:47.616Z,8.90
2019-03-22T22:37:17.494Z,9.60
2019-03-22T22:39:47.377Z,9.40
2019-03-22T22:42:17.336Z,9.67
2019-03-22T22:44:47.308Z,9.83
2019-03-22T22:47:17.184Z,9.50
2019-03-22T22:49:48.334Z,9.00
2019-03-22T22:52:18.470Z,9.60
2019-03-22T22:54:48.426Z,8.60
2019-03-22T22:57:18.272Z,8.77
2019-03-22T22:59:48.193Z,9.60
2019-03-22T23:02:18.112Z,9.50
2019-03-22T23:04:48.054Z,9.40
2019-03-22T23:07:17.909Z,9.97
2019-03-22T23:09:47.802Z,8.77
2019-03-22T23:12:17.814Z,10.40
2019-03-22T23:14:47.740Z,9.77
2019-03-22T23:17:17.702Z,10.00
2019-03-22T23:19:47.565Z,8.70
2019-03-22T23:22:17.426Z,9.87
2019-03-22T23:24:48.998Z,8.77
2019-03-22T23:27:18.946Z,9.93
2019-03-22T23:29:48.806Z,8.83
2019-03-22T23:32:18.648Z,9.93
2019-03-22T23:34:58.472Z,9.50
2019-03-22T23:37:20.113Z,18.53
2019-03-22T23:39:49.993Z,11.30
2019-03-22T23:42:19.830Z,10.43
2019-03-22T23:44:49.736Z,10.50
2019-03-22T23:47:19.625Z,9.90
2019-03-22T23:49:49.485Z,10.47
2019-03-22T23:52:19.301Z,9.60
2019-03-22T23:54:49.112Z,10.57
2019-03-22T23:57:19.055Z,10.57
2019-03-22T23:59:48.973Z,11.20
